createdAt,value
2017-09-05T00:00:22.983Z,17.1
2017-09-05T00:01:24.782Z,17.1
2017-09-05T00:02:26.414Z,17.1
2017-09-05T00:03:28.175Z,17.1
2017-09-05T00:04:29.796Z,17.2
2017-09-05T00:05:31.583Z,17.2
2017-09-05T00:06:33.267Z,17.1
2017-09-05T00:07:34.943Z,17.2
2017-09-05T00:08:36.517Z,17.0
2017-09-05T00:09:38.247Z,17.0
2017-09-05T00:10:39.823Z,17.0
2017-09-05T00:11:41.596Z,17.1
2017-09-05T00:12:43.183Z,17.1
2017-09-05T00:13:44.930Z,17.1
2017-09-05T00:14:46.495Z,17.1
2017-09-05T00:15:48.265Z,17.1
2017-09-05T00:16:49.898Z,17.1
2017-09-05T00:17:51.602Z,17.1
2017-09-05T00:18:53.274Z,17.0
2017-09-05T00:19:54.976Z,17.1
2017-09-05T00:20:56.628Z,17.0
2017-09-05T00:21:59.351Z,17.1
2017-09-05T00:23:00.959Z,17.1
2017-09-05T00:24:02.678Z,17.0
2017-09-05T00:25:04.269Z,17.0
2017-09-05T00:26:06.037Z,17.0
2017-09-05T00:27:07.669Z,17.0
2017-09-05T00:28:09.366Z,17.1
2017-09-05T00:29:11.016Z,17.1
2017-09-05T00:30:12.792Z,17.1
2017-09-05T00:31:14.375Z,17.1
2017-09-05T00:32:16.168Z,17.0
2017-09-05T00:33:17.806Z,17.1
2017-09-05T00:34:19.556Z,17.1
2017-09-05T00:35:21.225Z,17.1
2017-09-05T00:36:22.970Z,17.1
2017-09-05T00:37:24.577Z,17.0
2017-09-05T00:38:26.347Z,17.1
2017-09-05T00:39:27.945Z,17.1
2017-09-05T00:40:29.682Z,17.1
2017-09-05T00:41:31.308Z,17.1
2017-09-05T00:42:33.234Z,17.0
2017-09-05T00:43:35.211Z,17.0
2017-09-05T00:44:37.204Z,17.1
2017-09-05T00:45:38.947Z,17.1
2017-09-05T00:46:40.953Z,17.0
2017-09-05T00:47:42.649Z,16.9
2017-09-05T00:48:44.527Z,16.9
2017-09-05T00:49:46.350Z,16.9
2017-09-05T00:50:48.454Z,16.9
2017-09-05T00:51:50.286Z,16.7
2017-09-05T00:52:52.202Z,16.6
2017-09-05T00:53:54.058Z,16.4
2017-09-05T00:54:56.095Z,16.4
2017-09-05T00:55:58.017Z,16.4
2017-09-05T00:57:00.097Z,16.5
2017-09-05T00:58:02.018Z,16.6
2017-09-05T00:59:04.242Z,16.5
2017-09-05T01:00:06.116Z,16.3
2017-09-05T01:01:08.031Z,16.3
2017-09-05T01:02:09.912Z,16.2
2017-09-05T01:03:11.673Z,16.0
2017-09-05T01:04:13.284Z,16.0
2017-09-05T01:05:15.024Z,16.1
2017-09-05T01:06:16.642Z,16.1
2017-09-05T01:07:18.476Z,16.0
2017-09-05T01:08:20.290Z,16.0
2017-09-05T01:09:22.313Z,16.0
2017-09-05T01:10:24.159Z,15.9
2017-09-05T01:11:26.160Z,15.9
2017-09-05T01:12:28.022Z,15.9
2017-09-05T01:13:29.738Z,15.9
2017-09-05T01:14:31.377Z,15.8
2017-09-05T01:15:33.285Z,15.9
2017-09-05T01:16:35.107Z,15.8
2017-09-05T01:17:36.854Z,15.7
2017-09-05T01:18:38.657Z,15.7
2017-09-05T01:19:40.661Z,15.8
2017-09-05T01:20:42.542Z,15.8
2017-09-05T01:21:44.374Z,15.8
2017-09-05T01:22:45.952Z,15.9
2017-09-05T01:23:48.718Z,15.9
2017-09-05T01:24:50.238Z,15.8
2017-09-05T01:25:51.993Z,15.7
2017-09-05T01:26:53.481Z,15.7
2017-09-05T01:27:55.061Z,15.7
2017-09-05T01:28:56.605Z,15.7
2017-09-05T01:29:58.304Z,15.7
2017-09-05T01:30:59.751Z,15.6
2017-09-05T01:32:01.435Z,15.6
2017-09-05T01:33:02.976Z,15.8
2017-09-05T01:34:04.596Z,15.7
2017-09-05T01:35:06.139Z,15.8
2017-09-05T01:36:07.863Z,15.7
2017-09-05T01:37:09.423Z,15.8
2017-09-05T01:38:11.097Z,15.7
2017-09-05T01:39:12.732Z,15.7
2017-09-05T01:40:14.367Z,15.7
2017-09-05T01:41:15.866Z,15.7
2017-09-05T01:42:17.570Z,15.7
2017-09-05T01:43:19.121Z,15.8
2017-09-05T01:44:20.748Z,15.7
2017-09-05T01:45:22.299Z,15.7
2017-09-05T01:46:23.919Z,15.7
2017-09-05T01:47:25.502Z,15.7
2017-09-05T01:48:27.131Z,15.7
2017-09-05T01:49:28.712Z,15.8
2017-09-05T01:50:30.428Z,15.8
2017-09-05T01:51:32.011Z,15.8
2017-09-05T01:52:33.736Z,15.8
2017-09-05T01:53:35.334Z,15.7
2017-09-05T01:54:37.026Z,15.7
2017-09-05T01:55:38.654Z,15.8
2017-09-05T01:56:40.366Z,15.8
2017-09-05T01:57:41.943Z,15.8
2017-09-05T01:58:43.610Z,15.8
2017-09-05T01:59:45.251Z,15.9
2017-09-05T02:00:47.010Z,15.8
2017-09-05T02:01:48.623Z,15.8
2017-09-05T02:02:51.343Z,15.8
2017-09-05T02:03:52.912Z,15.7
2017-09-05T02:04:54.659Z,15.7
2017-09-05T02:05:56.509Z,15.8
2017-09-05T02:06:58.306Z,15.7
2017-09-05T02:07:59.920Z,15.7
2017-09-05T02:09:01.954Z,15.8
2017-09-05T02:10:03.762Z,15.8
2017-09-05T02:11:05.737Z,15.8
2017-09-05T02:12:07.463Z,15.8
2017-09-05T02:13:09.259Z,15.7
2017-09-05T02:14:11.026Z,15.8
2017-09-05T02:15:12.987Z,15.8
2017-09-05T02:16:14.823Z,15.8
2017-09-05T02:17:16.695Z,15.7
2017-09-05T02:18:18.554Z,15.8
2017-09-05T02:19:20.462Z,15.7
2017-09-05T02:20:22.120Z,15.7
2017-09-05T02:21:23.796Z,15.8
2017-09-05T02:22:25.642Z,15.8
2017-09-05T02:23:27.596Z,15.8
2017-09-05T02:24:29.292Z,15.9
2017-09-05T02:25:31.281Z,15.9
2017-09-05T02:26:32.919Z,15.9
2017-09-05T02:27:35.587Z,15.9
2017-09-05T02:28:37.343Z,15.8
2017-09-05T02:29:39.093Z,15.8
2017-09-05T02:30:40.977Z,15.9
2017-09-05T02:31:42.795Z,15.9
2017-09-05T02:32:44.597Z,15.8
2017-09-05T02:33:46.575Z,15.9
2017-09-05T02:34:48.361Z,15.9
2017-09-05T02:35:50.321Z,15.8
2017-09-05T02:36:52.228Z,15.8
2017-09-05T02:37:54.153Z,15.8
2017-09-05T02:38:56.024Z,15.8
2017-09-05T02:39:57.897Z,15.7
2017-09-05T02:40:59.764Z,15.7
2017-09-05T02:42:01.702Z,15.8
2017-09-05T02:43:03.505Z,15.7
2017-09-05T02:44:06.483Z,15.8
2017-09-05T02:45:08.295Z,15.8
2017-09-05T02:46:10.180Z,15.7
2017-09-05T02:47:12.022Z,15.8
2017-09-05T02:48:14.899Z,15.8
2017-09-05T02:49:16.759Z,15.8
2017-09-05T02:50:18.602Z,15.9
2017-09-05T02:51:20.446Z,15.9
2017-09-05T02:52:22.527Z,15.8
2017-09-05T02:53:24.310Z,15.9
2017-09-05T02:54:26.352Z,16.0
2017-09-05T02:55:28.202Z,16.0
2017-09-05T02:56:30.147Z,15.9
2017-09-05T02:57:31.971Z,16.0
2017-09-05T02:58:33.960Z,15.9
2017-09-05T02:59:35.821Z,15.9
2017-09-05T03:00:37.739Z,15.9
2017-09-05T03:01:39.475Z,15.9
2017-09-05T03:02:41.435Z,15.9
2017-09-05T03:03:43.303Z,15.9
2017-09-05T03:04:45.219Z,15.9
2017-09-05T03:05:47.052Z,16.0
2017-09-05T03:06:48.965Z,16.0
2017-09-05T03:07:50.692Z,16.0
2017-09-05T03:08:52.525Z,16.0
2017-09-05T03:09:54.385Z,16.0
2017-09-05T03:10:56.384Z,16.0
2017-09-05T03:11:58.267Z,16.0
2017-09-05T03:13:00.151Z,16.0
2017-09-05T03:14:02.025Z,16.1
2017-09-05T03:15:04.028Z,16.0
2017-09-05T03:16:05.903Z,16.0
2017-09-05T03:17:07.814Z,16.0
2017-09-05T03:18:09.690Z,16.0
2017-09-05T03:19:11.623Z,16.0
2017-09-05T03:20:13.513Z,16.0
2017-09-05T03:21:15.332Z,16.0
2017-09-05T03:22:17.195Z,15.9
2017-09-05T03:23:19.008Z,16.0
2017-09-05T03:24:20.928Z,16.0
2017-09-05T03:25:22.894Z,16.0
2017-09-05T03:26:24.765Z,15.9
2017-09-05T03:27:26.797Z,16.1
2017-09-05T03:28:28.529Z,16.1
2017-09-05T03:29:30.510Z,16.0
2017-09-05T03:30:32.438Z,16.0
2017-09-05T03:31:34.454Z,16.0
2017-09-05T03:32:36.236Z,15.9
2017-09-05T03:33:38.237Z,16.0
2017-09-05T03:34:40.182Z,16.0
2017-09-05T03:35:42.025Z,16.0
2017-09-05T03:36:43.934Z,16.0
2017-09-05T03:37:45.858Z,16.0
2017-09-05T03:38:47.652Z,16.0
2017-09-05T03:39:49.600Z,16.0
2017-09-05T03:40:51.505Z,16.0
2017-09-05T03:41:53.501Z,15.9
2017-09-05T03:42:55.336Z,15.9
2017-09-05T03:43:57.305Z,15.9
2017-09-05T03:44:59.306Z,15.9
2017-09-05T03:46:01.212Z,15.9
2017-09-05T03:47:03.122Z,15.9
2017-09-05T03:48:05.009Z,15.9
2017-09-05T03:49:06.912Z,15.9
2017-09-05T03:50:08.874Z,16.0
2017-09-05T03:51:10.777Z,15.9
2017-09-05T03:52:12.674Z,15.9
2017-09-05T03:53:14.353Z,15.9
2017-09-05T03:54:16.351Z,15.9
2017-09-05T03:55:18.267Z,15.9
2017-09-05T03:56:20.082Z,15.9
2017-09-05T03:57:21.957Z,15.9
2017-09-05T03:58:23.902Z,15.9
2017-09-05T03:59:25.758Z,15.9
2017-09-05T04:00:27.732Z,16.0
2017-09-05T04:01:29.646Z,16.0
2017-09-05T04:02:31.416Z,15.9
2017-09-05T04:03:33.214Z,16.0
2017-09-05T04:04:35.154Z,16.0
2017-09-05T04:05:37.011Z,15.9
2017-09-05T04:06:38.839Z,15.9
2017-09-05T04:07:40.716Z,15.9
2017-09-05T04:08:42.406Z,15.9
2017-09-05T04:09:44.264Z,15.8
2017-09-05T04:10:46.171Z,15.8
2017-09-05T04:11:48.070Z,15.9
2017-09-05T04:12:49.864Z,15.8
2017-09-05T04:13:51.667Z,15.9
2017-09-05T04:14:53.558Z,15.8
2017-09-05T04:15:55.370Z,15.9
2017-09-05T04:16:57.318Z,15.9
2017-09-05T04:17:59.210Z,15.9
2017-09-05T04:19:01.067Z,15.9
2017-09-05T04:20:02.726Z,15.9
2017-09-05T04:21:04.672Z,15.9
2017-09-05T04:22:06.532Z,15.9
2017-09-05T04:23:08.487Z,16.0
2017-09-05T04:24:10.350Z,15.9
2017-09-05T04:25:12.346Z,15.8
2017-09-05T04:26:14.045Z,15.9
2017-09-05T04:27:15.913Z,15.9
2017-09-05T04:28:17.770Z,15.9
2017-09-05T04:29:21.861Z,15.9
2017-09-05T04:30:23.784Z,16.0
2017-09-05T04:31:25.651Z,16.0
2017-09-05T04:32:27.573Z,16.0
2017-09-05T04:33:29.337Z,16.0
2017-09-05T04:34:31.028Z,15.9
2017-09-05T04:35:32.748Z,16.0
2017-09-05T04:36:34.551Z,16.0
2017-09-05T04:37:36.291Z,15.9
2017-09-05T04:38:38.233Z,15.9
2017-09-05T04:39:40.140Z,15.9
2017-09-05T04:40:42.065Z,16.0
2017-09-05T04:41:43.884Z,16.0
2017-09-05T04:42:45.802Z,15.9
2017-09-05T04:43:47.681Z,16.0
2017-09-05T04:44:49.892Z,15.9
2017-09-05T04:45:51.759Z,16.0
2017-09-05T04:46:53.699Z,16.0
2017-09-05T04:47:55.521Z,16.0
2017-09-05T04:48:57.577Z,15.9
2017-09-05T04:49:59.463Z,15.9
2017-09-05T04:51:01.392Z,15.9
2017-09-05T04:52:03.323Z,16.0
2017-09-05T04:53:05.448Z,16.0
2017-09-05T04:54:07.403Z,16.2
2017-09-05T04:55:09.325Z,16.1
2017-09-05T04:56:11.187Z,16.1
2017-09-05T04:57:13.184Z,16.1
2017-09-05T04:58:15.070Z,16.1
2017-09-05T04:59:16.971Z,16.2
2017-09-05T05:00:18.885Z,16.1
2017-09-05T05:01:20.903Z,16.1
2017-09-05T05:02:22.771Z,16.0
2017-09-05T05:03:24.722Z,16.0
2017-09-05T05:04:26.753Z,16.0
2017-09-05T05:05:28.942Z,16.0
2017-09-05T05:06:30.794Z,16.0
2017-09-05T05:07:32.685Z,16.0
2017-09-05T05:08:34.597Z,16.0
2017-09-05T05:09:36.514Z,16.1
2017-09-05T05:10:38.400Z,16.1
2017-09-05T05:11:40.414Z,16.2
2017-09-05T05:12:42.317Z,16.2
2017-09-05T05:13:44.338Z,16.1
2017-09-05T05:14:45.963Z,16.1
2017-09-05T05:15:47.931Z,16.1
2017-09-05T05:16:49.844Z,16.2
2017-09-05T05:17:52.021Z,16.3
2017-09-05T05:18:54.017Z,16.3
2017-09-05T05:19:56.035Z,16.2
2017-09-05T05:20:58.146Z,16.3
2017-09-05T05:22:00.352Z,16.2
2017-09-05T05:23:02.298Z,16.1
2017-09-05T05:24:04.469Z,16.2
2017-09-05T05:25:06.371Z,16.2
2017-09-05T05:26:08.356Z,16.2
2017-09-05T05:27:10.333Z,16.2
2017-09-05T05:28:12.388Z,16.2
2017-09-05T05:29:14.420Z,16.2
2017-09-05T05:30:16.490Z,16.2
2017-09-05T05:31:18.465Z,16.1
2017-09-05T05:32:20.436Z,16.1
2017-09-05T05:33:22.429Z,16.2
2017-09-05T05:34:24.513Z,16.1
2017-09-05T05:35:26.486Z,16.2
2017-09-05T05:36:28.657Z,16.1
2017-09-05T05:37:30.749Z,16.1
2017-09-05T05:38:32.910Z,16.2
2017-09-05T05:39:34.995Z,16.2
2017-09-05T05:40:38.010Z,16.1
2017-09-05T05:41:40.086Z,16.2
2017-09-05T05:42:42.193Z,16.1
2017-09-05T05:43:44.349Z,16.1
2017-09-05T05:44:46.423Z,16.1
2017-09-05T05:45:48.470Z,16.1
2017-09-05T05:46:50.555Z,16.1
2017-09-05T05:47:52.545Z,16.1
2017-09-05T05:48:54.619Z,16.2
2017-09-05T05:49:56.752Z,16.2
2017-09-05T05:50:58.823Z,16.2
2017-09-05T05:52:00.963Z,16.2
2017-09-05T05:53:03.159Z,16.3
2017-09-05T05:54:05.206Z,16.4
2017-09-05T05:55:07.334Z,16.3
2017-09-05T05:56:09.484Z,16.4
2017-09-05T05:57:11.597Z,16.4
2017-09-05T05:58:13.787Z,16.4
2017-09-05T05:59:15.985Z,16.4
2017-09-05T06:00:18.311Z,16.5
2017-09-05T06:01:20.433Z,16.5
2017-09-05T06:02:22.532Z,16.4
2017-09-05T06:03:24.601Z,16.5
2017-09-05T06:04:26.799Z,16.6
2017-09-05T06:05:29.735Z,16.5
2017-09-05T06:06:31.732Z,16.6
2017-09-05T06:07:33.733Z,16.5
2017-09-05T06:08:36.060Z,16.6
2017-09-05T06:09:38.241Z,16.4
2017-09-05T06:10:40.289Z,16.5
2017-09-05T06:11:42.562Z,16.5
2017-09-05T06:12:44.830Z,16.5
2017-09-05T06:13:47.137Z,16.7
2017-09-05T06:14:49.396Z,16.7
2017-09-05T06:15:51.709Z,16.6
2017-09-05T06:16:53.932Z,16.7
2017-09-05T06:17:56.336Z,16.8
2017-09-05T06:18:58.609Z,16.8
2017-09-05T06:20:01.868Z,16.8
2017-09-05T06:21:04.041Z,16.8
2017-09-05T06:22:06.373Z,16.9
2017-09-05T06:23:08.556Z,17.0
2017-09-05T06:24:10.941Z,17.0
2017-09-05T06:25:12.870Z,17.1
2017-09-05T06:26:15.312Z,17.0
2017-09-05T06:27:17.559Z,17.1
2017-09-05T06:28:19.886Z,17.2
2017-09-05T06:29:22.198Z,17.3
2017-09-05T06:30:25.404Z,17.3
2017-09-05T06:31:27.620Z,17.2
2017-09-05T06:32:29.986Z,17.3
2017-09-05T06:33:32.379Z,17.3
2017-09-05T06:34:35.422Z,17.3
2017-09-05T06:35:37.547Z,17.3
2017-09-05T06:36:40.244Z,17.4
2017-09-05T06:37:42.457Z,17.6
2017-09-05T06:38:44.796Z,17.5
2017-09-05T06:39:47.062Z,17.6
2017-09-05T06:40:50.324Z,17.6
2017-09-05T06:41:52.407Z,17.7
2017-09-05T06:42:54.762Z,17.7
2017-09-05T06:43:56.853Z,17.7
2017-09-05T06:44:59.092Z,17.7
2017-09-05T06:46:01.229Z,17.7
2017-09-05T06:47:03.358Z,17.7
2017-09-05T06:48:05.427Z,17.7
2017-09-05T06:49:07.469Z,17.7
2017-09-05T06:50:09.532Z,17.7
2017-09-05T06:51:11.607Z,17.7
2017-09-05T06:52:13.663Z,17.6
2017-09-05T06:53:17.139Z,17.6
2017-09-05T06:54:19.036Z,17.6
2017-09-05T06:55:21.255Z,17.6
2017-09-05T06:56:23.181Z,17.6
2017-09-05T06:57:25.366Z,17.5
2017-09-05T06:58:27.512Z,17.5
2017-09-05T06:59:29.573Z,17.4
2017-09-05T07:00:31.609Z,17.3
2017-09-05T07:02:05.702Z,17.6
2017-09-05T07:03:07.349Z,17.6
2017-09-05T07:04:11.534Z,17.6
2017-09-05T07:05:13.536Z,17.6
2017-09-05T07:06:15.670Z,17.6
2017-09-05T07:07:17.701Z,17.7
2017-09-05T07:08:19.776Z,17.6
2017-09-05T07:09:21.788Z,17.7
2017-09-05T07:10:23.849Z,17.7
2017-09-05T07:11:25.857Z,17.7
2017-09-05T07:12:28.084Z,17.8
2017-09-05T07:13:30.891Z,17.8
2017-09-05T07:14:32.816Z,17.9
2017-09-05T07:15:34.931Z,17.8
2017-09-05T07:16:37.032Z,17.9
2017-09-05T07:17:39.088Z,17.9
2017-09-05T07:18:41.167Z,18.0
2017-09-05T07:19:43.164Z,18.0
2017-09-05T07:20:45.257Z,18.1
2017-09-05T07:21:47.312Z,18.1
2017-09-05T07:22:49.273Z,18.2
2017-09-05T07:23:51.294Z,18.2
2017-09-05T07:24:53.350Z,18.3
2017-09-05T07:25:55.413Z,18.4
2017-09-05T07:26:57.467Z,18.4
2017-09-05T07:27:59.100Z,18.5
2017-09-05T07:29:01.068Z,18.5
2017-09-05T07:30:03.058Z,18.4
2017-09-05T07:31:06.226Z,18.5
2017-09-05T07:32:08.117Z,18.7
2017-09-05T07:33:10.200Z,18.7
2017-09-05T07:34:12.194Z,18.9
2017-09-05T07:35:14.340Z,18.8
2017-09-05T07:36:16.361Z,19.0
2017-09-05T07:37:18.521Z,19.1
2017-09-05T07:38:20.536Z,18.9
2017-09-05T07:39:22.549Z,19.0
2017-09-05T07:40:24.483Z,19.2
2017-09-05T07:41:26.568Z,19.4
2017-09-05T07:42:29.893Z,19.4
2017-09-05T07:43:32.065Z,19.5
2017-09-05T07:44:33.939Z,19.5
2017-09-05T07:45:35.938Z,19.5
2017-09-05T07:46:37.890Z,19.6
2017-09-05T07:47:39.865Z,19.8
2017-09-05T07:48:41.829Z,19.8
2017-09-05T07:49:43.715Z,19.8
2017-09-05T07:50:45.536Z,19.9
2017-09-05T07:51:47.691Z,20.0
2017-09-05T07:52:49.603Z,19.9
2017-09-05T07:53:51.753Z,20.0
2017-09-05T07:54:53.961Z,20.0
2017-09-05T07:55:56.054Z,20.0
2017-09-05T07:56:58.023Z,20.0
2017-09-05T07:58:00.071Z,20.0
2017-09-05T07:59:02.959Z,20.2
2017-09-05T08:00:04.971Z,20.3
2017-09-05T08:02:05.722Z,20.7
2017-09-05T08:03:07.174Z,20.9
2017-09-05T08:04:08.807Z,21.2
2017-09-05T08:05:10.293Z,21.3
2017-09-05T08:06:12.061Z,21.4
2017-09-05T08:07:13.752Z,21.4
2017-09-05T08:08:15.516Z,21.5
2017-09-05T08:09:17.332Z,21.1
2017-09-05T08:10:19.495Z,21.0
2017-09-05T08:11:21.515Z,21.0
2017-09-05T08:12:23.269Z,21.0
2017-09-05T08:13:24.944Z,21.4
2017-09-05T08:14:26.826Z,21.4
2017-09-05T08:15:28.738Z,21.6
2017-09-05T08:16:30.668Z,21.4
2017-09-05T08:17:32.916Z,21.2
2017-09-05T08:18:35.164Z,21.2
2017-09-05T08:19:37.177Z,21.1
2017-09-05T08:20:39.340Z,21.4
2017-09-05T08:21:41.525Z,21.3
2017-09-05T08:22:43.626Z,21.4
2017-09-05T08:23:45.825Z,21.4
2017-09-05T08:24:48.109Z,21.7
2017-09-05T08:25:50.328Z,21.3
2017-09-05T08:26:52.384Z,21.4
2017-09-05T08:27:54.331Z,21.6
2017-09-05T08:28:56.404Z,21.7
2017-09-05T08:29:58.381Z,21.3
2017-09-05T08:31:00.484Z,21.4
2017-09-05T08:32:02.615Z,21.3
2017-09-05T08:33:04.676Z,21.3
2017-09-05T08:34:06.796Z,21.5
2017-09-05T08:35:09.926Z,21.6
2017-09-05T08:36:12.286Z,21.6
2017-09-05T08:37:14.463Z,22.1
2017-09-05T08:38:16.565Z,22.3
2017-09-05T08:39:18.501Z,21.9
2017-09-05T08:40:20.276Z,22.3
2017-09-05T08:41:22.181Z,22.3
2017-09-05T08:42:24.346Z,22.5
2017-09-05T08:43:26.619Z,22.4
2017-09-05T08:44:28.799Z,22.3
2017-09-05T08:45:30.732Z,21.8
2017-09-05T08:46:32.726Z,21.9
2017-09-05T08:47:34.780Z,22.1
2017-09-05T08:48:36.795Z,22.5
2017-09-05T08:49:38.968Z,22.4
2017-09-05T08:50:41.028Z,22.3
2017-09-05T08:51:43.044Z,22.2
2017-09-05T08:52:44.975Z,22.0
2017-09-05T08:53:47.044Z,22.2
2017-09-05T08:54:49.061Z,22.2
2017-09-05T08:55:50.916Z,22.2
2017-09-05T08:56:52.692Z,22.5
2017-09-05T08:57:54.768Z,22.7
2017-09-05T08:58:56.524Z,22.4
2017-09-05T08:59:58.558Z,22.3
2017-09-05T09:02:05.755Z,21.9
2017-09-05T09:03:07.428Z,22.1
2017-09-05T09:04:09.115Z,21.9
2017-09-05T09:05:10.739Z,21.9
2017-09-05T09:06:12.805Z,22.3
2017-09-05T09:07:14.837Z,22.1
2017-09-05T09:08:16.715Z,22.3
2017-09-05T09:09:18.719Z,22.3
2017-09-05T09:10:20.683Z,22.1
2017-09-05T09:11:22.581Z,22.1
2017-09-05T09:12:24.552Z,22.2
2017-09-05T09:13:26.548Z,22.0
2017-09-05T09:14:28.652Z,22.3
2017-09-05T09:15:30.649Z,22.3
2017-09-05T09:16:33.863Z,22.4
2017-09-05T09:17:35.787Z,22.2
2017-09-05T09:18:37.848Z,22.5
2017-09-05T09:19:39.774Z,22.7
2017-09-05T09:20:46.633Z,22.6
2017-09-05T09:21:48.826Z,22.9
2017-09-05T09:22:50.991Z,22.9
2017-09-05T09:23:52.927Z,22.8
2017-09-05T09:24:54.719Z,23.2
2017-09-05T09:25:56.471Z,22.8
2017-09-05T09:26:58.482Z,22.8
2017-09-05T09:28:00.377Z,22.6
2017-09-05T09:29:03.471Z,22.9
2017-09-05T09:30:05.308Z,23.1
2017-09-05T09:31:07.093Z,22.8
2017-09-05T09:32:08.981Z,23.0
2017-09-05T09:33:11.096Z,23.1
2017-09-05T09:34:13.143Z,22.9
2017-09-05T09:35:14.932Z,22.9
2017-09-05T09:36:16.758Z,23.1
2017-09-05T09:37:18.793Z,22.8
2017-09-05T09:38:20.675Z,22.6
2017-09-05T09:39:22.734Z,22.9
2017-09-05T09:40:24.762Z,23.1
2017-09-05T09:41:26.852Z,23.0
2017-09-05T09:42:28.779Z,23.1
2017-09-05T09:43:30.921Z,23.4
2017-09-05T09:44:32.696Z,23.8
2017-09-05T09:45:35.744Z,23.6
2017-09-05T09:46:37.625Z,23.5
2017-09-05T09:47:39.817Z,23.3
2017-09-05T09:48:41.794Z,23.3
2017-09-05T09:49:43.617Z,23.3
2017-09-05T09:50:45.808Z,23.5
2017-09-05T09:51:47.873Z,23.4
2017-09-05T09:52:49.800Z,23.6
2017-09-05T09:53:51.820Z,23.7
2017-09-05T09:54:53.601Z,23.9
2017-09-05T09:55:55.329Z,23.9
2017-09-05T09:56:57.209Z,24.0
2017-09-05T09:57:58.916Z,23.8
2017-09-05T09:59:00.579Z,23.9
2017-09-05T10:00:02.368Z,23.5
2017-09-05T10:02:05.802Z,23.6
2017-09-05T10:03:07.398Z,23.9
2017-09-05T10:04:09.864Z,23.3
2017-09-05T10:05:11.438Z,23.3
2017-09-05T10:06:13.144Z,23.5
2017-09-05T10:07:14.802Z,23.5
2017-09-05T10:08:17.472Z,23.7
2017-09-05T10:09:19.178Z,23.8
2017-09-05T10:10:20.943Z,24.3
2017-09-05T10:11:22.553Z,23.9
2017-09-05T10:12:24.405Z,24.3
2017-09-05T10:13:26.069Z,24.3
2017-09-05T10:14:27.936Z,24.1
2017-09-05T10:15:29.799Z,24.1
2017-09-05T10:16:32.498Z,24.1
2017-09-05T10:17:34.329Z,24.1
2017-09-05T10:18:36.281Z,23.9
2017-09-05T10:19:38.017Z,24.1
2017-09-05T10:20:39.791Z,24.5
2017-09-05T10:21:41.462Z,24.3
2017-09-05T10:22:55.778Z,24.0
2017-09-05T10:23:57.825Z,24.2
2017-09-05T10:24:59.957Z,24.2
2017-09-05T10:26:01.957Z,24.4
2017-09-05T10:27:04.036Z,24.2
2017-09-05T10:28:06.009Z,24.1
2017-09-05T10:29:07.986Z,24.3
2017-09-05T10:30:10.065Z,24.5
2017-09-05T10:31:11.890Z,23.8
2017-09-05T10:32:13.959Z,23.8
2017-09-05T10:33:16.327Z,23.5
2017-09-05T10:34:18.307Z,23.4
2017-09-05T10:35:20.259Z,23.6
2017-09-05T10:36:22.970Z,23.5
2017-09-05T10:37:26.076Z,23.2
2017-09-05T10:38:27.942Z,23.1
2017-09-05T10:39:30.060Z,23.3
2017-09-05T10:40:32.012Z,23.1
2017-09-05T10:41:34.085Z,23.2
2017-09-05T10:42:36.031Z,23.3
2017-09-05T10:43:41.872Z,23.0
2017-09-05T10:44:43.804Z,23.2
2017-09-05T10:45:46.540Z,23.4
2017-09-05T10:46:48.542Z,23.8
2017-09-05T10:47:50.566Z,23.8
2017-09-05T10:48:52.446Z,24.0
2017-09-05T10:49:54.565Z,24.0
2017-09-05T10:50:56.353Z,24.2
2017-09-05T10:51:58.324Z,24.5
2017-09-05T10:53:00.098Z,24.7
2017-09-05T10:54:01.729Z,24.9
2017-09-05T10:55:03.687Z,24.8
2017-09-05T10:56:05.634Z,24.6
2017-09-05T10:57:07.452Z,24.4
2017-09-05T10:58:09.284Z,24.5
2017-09-05T10:59:11.181Z,24.6
2017-09-05T11:00:13.255Z,24.9
2017-09-05T11:01:15.169Z,25.1
2017-09-05T11:02:17.102Z,24.8
2017-09-05T11:03:19.167Z,25.0
2017-09-05T11:04:21.146Z,24.9
2017-09-05T11:05:23.077Z,25.2
2017-09-05T11:06:25.033Z,25.4
2017-09-05T11:07:26.708Z,25.1
2017-09-05T11:08:28.425Z,24.8
2017-09-05T11:09:30.347Z,25.0
2017-09-05T11:10:32.423Z,25.3
2017-09-05T11:11:34.266Z,25.2
2017-09-05T11:12:35.928Z,25.5
2017-09-05T11:13:37.742Z,25.4
2017-09-05T11:14:39.833Z,24.9
2017-09-05T11:15:41.806Z,25.1
2017-09-05T11:16:43.906Z,25.2
2017-09-05T11:17:45.932Z,25.2
2017-09-05T11:18:48.063Z,25.7
2017-09-05T11:19:49.976Z,25.9
2017-09-05T11:20:52.147Z,26.0
2017-09-05T11:21:54.162Z,25.9
2017-09-05T11:22:55.849Z,25.8
2017-09-05T11:23:57.437Z,25.6
2017-09-05T11:24:59.005Z,25.7
2017-09-05T11:26:00.758Z,25.8
2017-09-05T11:27:02.330Z,26.0
2017-09-05T11:28:03.938Z,25.6
2017-09-05T11:29:05.534Z,26.0
2017-09-05T11:30:07.064Z,25.8
2017-09-05T11:31:08.686Z,25.7
2017-09-05T11:32:10.243Z,25.5
2017-09-05T11:33:11.819Z,25.4
2017-09-05T11:34:13.404Z,25.4
2017-09-05T11:35:16.026Z,24.9
2017-09-05T11:36:17.638Z,24.6
2017-09-05T11:37:19.280Z,24.9
2017-09-05T11:38:20.903Z,25.1
2017-09-05T11:39:22.561Z,25.1
2017-09-05T11:40:24.222Z,25.1
2017-09-05T11:41:25.759Z,25.3
2017-09-05T11:42:27.339Z,25.5
2017-09-05T11:43:28.908Z,25.8
2017-09-05T11:44:30.542Z,25.7
2017-09-05T11:45:32.163Z,25.7
2017-09-05T11:46:33.740Z,25.7
2017-09-05T11:47:35.339Z,25.9
2017-09-05T11:48:36.902Z,26.4
2017-09-05T11:49:38.474Z,26.5
2017-09-05T11:50:40.008Z,26.7
2017-09-05T11:51:41.550Z,27.0
2017-09-05T11:52:43.073Z,27.3
2017-09-05T11:53:44.639Z,27.4
2017-09-05T11:54:46.173Z,27.2
2017-09-05T11:55:47.714Z,27.0
2017-09-05T11:56:49.291Z,27.3
2017-09-05T11:57:50.867Z,27.1
2017-09-05T11:58:52.419Z,27.2
2017-09-05T11:59:53.928Z,26.9
2017-09-05T12:00:55.540Z,27.1
2017-09-05T12:01:57.117Z,27.4
2017-09-05T12:02:58.759Z,27.4
2017-09-05T12:04:00.314Z,27.1
2017-09-05T12:05:02.993Z,27.1
2017-09-05T12:06:04.604Z,27.4
2017-09-05T12:07:07.169Z,27.3
2017-09-05T12:08:08.709Z,27.2
2017-09-05T12:09:10.272Z,27.2
2017-09-05T12:10:11.842Z,27.2
2017-09-05T12:11:13.411Z,27.4
2017-09-05T12:12:15.000Z,27.2
2017-09-05T12:13:16.674Z,26.7
2017-09-05T12:14:18.396Z,26.8
2017-09-05T12:15:19.997Z,26.8
2017-09-05T12:16:21.571Z,27.0
2017-09-05T12:17:23.172Z,27.1
2017-09-05T12:18:24.785Z,26.8
2017-09-05T12:19:26.342Z,27.0
2017-09-05T12:20:27.946Z,26.6
2017-09-05T12:21:30.525Z,26.6
2017-09-05T12:22:32.524Z,26.8
2017-09-05T12:23:39.221Z,27.0
2017-09-05T12:24:40.942Z,27.0
2017-09-05T12:25:42.649Z,26.6
2017-09-05T12:26:44.311Z,27.0
2017-09-05T12:27:46.044Z,27.0
2017-09-05T12:28:47.788Z,27.3
2017-09-05T12:29:49.420Z,27.3
2017-09-05T12:30:50.958Z,27.2
2017-09-05T12:31:52.627Z,27.4
2017-09-05T12:32:54.212Z,27.5
2017-09-05T12:33:55.891Z,27.4
2017-09-05T12:34:57.525Z,27.2
2017-09-05T12:35:59.215Z,27.3
2017-09-05T12:37:00.848Z,27.7
2017-09-05T12:38:03.417Z,27.6
2017-09-05T12:39:05.461Z,27.8
2017-09-05T12:40:07.001Z,27.9
2017-09-05T12:41:08.568Z,27.4
2017-09-05T12:42:11.179Z,27.2
2017-09-05T12:43:12.901Z,26.8
2017-09-05T12:44:15.442Z,27.0
2017-09-05T12:45:16.999Z,27.3
2017-09-05T12:46:18.601Z,27.5
2017-09-05T12:47:20.159Z,27.1
2017-09-05T12:48:21.695Z,27.0
2017-09-05T12:49:23.389Z,26.9
2017-09-05T12:50:25.010Z,26.9
2017-09-05T12:51:26.630Z,26.9
2017-09-05T12:52:28.231Z,26.9
2017-09-05T12:53:29.771Z,26.8
2017-09-05T12:54:31.378Z,26.7
2017-09-05T12:55:32.954Z,26.7
2017-09-05T12:56:35.509Z,26.6
2017-09-05T12:57:37.103Z,26.7
2017-09-05T12:58:38.770Z,26.8
2017-09-05T12:59:40.395Z,26.7
2017-09-05T13:00:42.057Z,26.8
2017-09-05T13:01:43.702Z,26.6
2017-09-05T13:02:45.380Z,26.8
2017-09-05T13:03:47.125Z,26.8
2017-09-05T13:04:48.753Z,26.6
2017-09-05T13:05:50.421Z,26.5
2017-09-05T13:06:52.059Z,26.5
2017-09-05T13:07:53.663Z,26.7
2017-09-05T13:08:55.523Z,26.7
2017-09-05T13:09:57.181Z,26.8
2017-09-05T13:10:58.850Z,26.7
2017-09-05T13:12:00.565Z,26.7
2017-09-05T13:13:02.310Z,26.8
2017-09-05T13:14:04.076Z,26.6
2017-09-05T13:15:05.744Z,26.8
2017-09-05T13:16:07.290Z,26.9
2017-09-05T13:17:08.987Z,26.8
2017-09-05T13:18:10.636Z,26.8
2017-09-05T13:19:12.182Z,26.7
2017-09-05T13:20:14.004Z,26.7
2017-09-05T13:21:15.627Z,26.8
2017-09-05T13:22:17.218Z,26.8
2017-09-05T13:23:18.993Z,26.6
2017-09-05T13:24:20.635Z,26.7
2017-09-05T13:25:22.168Z,26.5
2017-09-05T13:26:23.866Z,26.5
2017-09-05T13:27:25.458Z,26.3
2017-09-05T13:28:27.206Z,26.4
2017-09-05T13:29:28.873Z,26.3
2017-09-05T13:30:30.538Z,26.3
2017-09-05T13:31:32.117Z,26.4
2017-09-05T13:32:33.760Z,26.3
2017-09-05T13:33:37.119Z,26.3
2017-09-05T13:34:38.663Z,26.3
2017-09-05T13:35:40.329Z,26.3
2017-09-05T13:36:42.186Z,26.2
2017-09-05T13:37:44.566Z,26.1
2017-09-05T13:38:46.008Z,26.2
2017-09-05T13:39:47.735Z,26.2
2017-09-05T13:40:49.438Z,26.4
2017-09-05T13:41:51.016Z,26.4
2017-09-05T13:43:32.030Z,26.2
2017-09-05T13:44:33.453Z,26.3
2017-09-05T13:45:34.889Z,26.4
2017-09-05T13:46:36.284Z,26.8
2017-09-05T13:47:37.686Z,26.9
2017-09-05T13:48:39.099Z,27.0